sensor_id;sensor_type;location;lat;lon;timestamp;pressure;altitude;pressure_sealevel;temperature;humidity
3524;BME280;1776;53.330;11.498;2024-01-25T00:00:14;22481.25;;;-147.39;85.28
3524;BME280;1776;53.330;11.498;2024-01-25T00:02:40;22410.13;;;-147.39;84.87
3524;BME280;1776;53.330;11.498;2024-01-25T00:05:05;22477.19;;;-147.39;85.28
3524;BME280;1776;53.330;11.498;2024-01-25T00:07:30;22434.50;;;-147.39;85.44
3524;BME280;1776;53.330;11.498;2024-01-25T00:09:56;22436.53;;;-147.39;85.81
3524;BME280;1776;53.330;11.498;2024-01-25T00:12:22;22462.97;;;-147.39;85.34
3524;BME280;1776;53.330;11.498;2024-01-25T00:14:48;22428.41;;;-147.39;85.57
3524;BME280;1776;53.330;11.498;2024-01-25T00:17:13;22430.44;;;-147.39;85.69
3524;BME280;1776;53.330;11.498;2024-01-25T00:19:38;22412.16;;;-147.39;85.95
3524;BME280;1776;53.330;11.498;2024-01-25T00:22:04;22440.63;;;-147.39;86.14
3524;BME280;1776;53.330;11.498;2024-01-25T00:24:29;22428.41;;;-147.39;85.91
3524;BME280;1776;53.330;11.498;2024-01-25T00:26:54;22408.09;;;-147.39;86.24
3524;BME280;1776;53.330;11.498;2024-01-25T00:29:19;22424.34;;;-147.39;86.02
3524;BME280;1776;53.330;11.498;2024-01-25T00:31:45;22418.25;;;-147.39;86.03
3524;BME280;1776;53.330;11.498;2024-01-25T00:34:13;22420.28;;;-147.39;86.22
3524;BME280;1776;53.330;11.498;2024-01-25T00:36:38;22420.28;;;-147.39;86.74
3524;BME280;1776;53.330;11.498;2024-01-25T00:39:04;22473.13;;;-147.39;86.41
3524;BME280;1776;53.330;11.498;2024-01-25T00:41:31;22399.97;;;-147.39;86.09
3524;BME280;1776;53.330;11.498;2024-01-25T00:43:57;22426.38;;;-147.39;86.05
3524;BME280;1776;53.330;11.498;2024-01-25T00:46:23;22391.84;;;-147.39;86.13
3524;BME280;1776;53.330;11.498;2024-01-25T00:48:48;22412.16;;;-147.39;85.83
3524;BME280;1776;53.330;11.498;2024-01-25T00:51:15;22422.31;;;-147.39;86.16
3524;BME280;1776;53.330;11.498;2024-01-25T00:53:43;22410.13;;;-147.39;86.13
3524;BME280;1776;53.330;11.498;2024-01-25T00:56:12;22385.75;;;-147.39;86.30
3524;BME280;1776;53.330;11.498;2024-01-25T00:58:38;22414.19;;;-147.39;86.28
3524;BME280;1776;53.330;11.498;2024-01-25T01:01:03;22397.94;;;-147.39;86.22
3524;BME280;1776;53.330;11.498;2024-01-25T01:03:29;22428.41;;;-147.39;86.27
3524;BME280;1776;53.330;11.498;2024-01-25T01:05:54;22377.59;;;-147.39;86.08
3524;BME280;1776;53.330;11.498;2024-01-25T01:08:20;22436.53;;;-147.39;86.01
3524;BME280;1776;53.330;11.498;2024-01-25T01:10:45;22385.75;;;-147.39;86.03
3524;BME280;1776;53.330;11.498;2024-01-25T01:13:11;22416.22;;;-147.39;86.01
3524;BME280;1776;53.330;11.498;2024-01-25T01:15:37;22434.50;;;-147.39;85.76
3524;BME280;1776;53.330;11.498;2024-01-25T01:18:02;22493.47;;;-147.39;85.17
3524;BME280;1776;53.330;11.498;2024-01-25T01:20:30;22432.47;;;-147.39;85.73
3524;BME280;1776;53.330;11.498;2024-01-25T01:22:55;22444.69;;;-147.39;85.37
3524;BME280;1776;53.330;11.498;2024-01-25T01:25:21;22440.63;;;-147.39;85.12
3524;BME280;1776;53.330;11.498;2024-01-25T01:27:46;22519.88;;;-147.39;85.11
3524;BME280;1776;53.330;11.498;2024-01-25T01:30:11;22428.41;;;-147.39;85.68
3524;BME280;1776;53.330;11.498;2024-01-25T01:32:37;22519.88;;;-147.39;84.96
3524;BME280;1776;53.330;11.498;2024-01-25T01:35:02;22440.63;;;-147.39;84.89
3524;BME280;1776;53.330;11.498;2024-01-25T01:37:27;22434.50;;;-147.39;84.94
3524;BME280;1776;53.330;11.498;2024-01-25T01:39:53;22306.47;;;-147.39;85.18
3524;BME280;1776;53.330;11.498;2024-01-25T01:42:21;22509.72;;;-147.39;85.33
3524;BME280;1776;53.330;11.498;2024-01-25T01:44:46;22485.31;;;-147.39;85.39
3524;BME280;1776;53.330;11.498;2024-01-25T01:47:11;22605.25;;;-147.39;85.02
3524;BME280;1776;53.330;11.498;2024-01-25T01:49:37;22467.03;;;-147.39;85.23
3524;BME280;1776;53.330;11.498;2024-01-25T01:52:02;22428.41;;;-147.39;85.13
3524;BME280;1776;53.330;11.498;2024-01-25T01:54:28;22454.84;;;-147.39;85.28
3524;BME280;1776;53.330;11.498;2024-01-25T01:56:53;22430.44;;;-147.39;85.21
3524;BME280;1776;53.330;11.498;2024-01-25T01:59:18;22448.75;;;-147.39;85.39
3524;BME280;1776;53.330;11.498;2024-01-25T02:01:45;22452.81;;;-147.39;85.63
3524;BME280;1776;53.330;11.498;2024-01-25T02:04:11;22599.16;;;-147.39;85.45
3524;BME280;1776;53.330;11.498;2024-01-25T02:06:36;22448.75;;;-147.39;85.31
3524;BME280;1776;53.330;11.498;2024-01-25T02:09:02;22454.84;;;-147.39;85.53
3524;BME280;1776;53.330;11.498;2024-01-25T02:11:27;22465.00;;;-147.39;85.43
3524;BME280;1776;53.330;11.498;2024-01-25T02:13:53;22462.97;;;-147.39;85.26
3524;BME280;1776;53.330;11.498;2024-01-25T02:16:18;22517.84;;;-147.39;85.62
3524;BME280;1776;53.330;11.498;2024-01-25T02:18:45;22566.63;;;-147.39;85.29
3524;BME280;1776;53.330;11.498;2024-01-25T02:21:11;22440.63;;;-147.39;85.45
3524;BME280;1776;53.330;11.498;2024-01-25T02:23:36;22444.69;;;-147.39;85.87
3524;BME280;1776;53.330;11.498;2024-01-25T02:26:02;22519.88;;;-147.39;85.84
3524;BME280;1776;53.330;11.498;2024-01-25T02:28:27;22444.69;;;-147.39;85.74
3524;BME280;1776;53.330;11.498;2024-01-25T02:30:52;22420.28;;;-147.39;86.06
3524;BME280;1776;53.330;11.498;2024-01-25T02:33:18;22416.22;;;-147.39;86.09
3524;BME280;1776;53.330;11.498;2024-01-25T02:35:43;22477.19;;;-147.39;85.90
3524;BME280;1776;53.330;11.498;2024-01-25T02:38:08;22436.53;;;-147.39;86.12
3524;BME280;1776;53.330;11.498;2024-01-25T02:40:33;22434.50;;;-147.39;85.88
3524;BME280;1776;53.330;11.498;2024-01-25T02:42:59;22564.59;;;-147.39;85.95
3524;BME280;1776;53.330;11.498;2024-01-25T02:45:24;22444.69;;;-147.39;86.20
3524;BME280;1776;53.330;11.498;2024-01-25T02:47:49;22460.94;;;-147.39;85.76
3524;BME280;1776;53.330;11.498;2024-01-25T02:50:15;22448.75;;;-147.39;85.94
3524;BME280;1776;53.330;11.498;2024-01-25T02:52:40;22552.41;;;-147.39;85.26
3524;BME280;1776;53.330;11.498;2024-01-25T02:55:06;22513.78;;;-147.39;85.78
3524;BME280;1776;53.330;11.498;2024-01-25T02:57:31;22430.44;;;-147.39;85.89
3524;BME280;1776;53.330;11.498;2024-01-25T02:59:57;22465.00;;;-147.39;85.30
3524;BME280;1776;53.330;11.498;2024-01-25T03:02:22;22458.91;;;-147.39;85.83
3524;BME280;1776;53.330;11.498;2024-01-25T03:04:48;22467.03;;;-147.39;85.39
3524;BME280;1776;53.330;11.498;2024-01-25T03:07:14;22450.78;;;-147.39;85.43
3524;BME280;1776;53.330;11.498;2024-01-25T03:09:39;22485.31;;;-147.39;84.83
3524;BME280;1776;53.330;11.498;2024-01-25T03:12:04;22495.50;;;-147.39;84.50
3524;BME280;1776;53.330;11.498;2024-01-25T03:14:30;22511.75;;;-147.39;84.61
3524;BME280;1776;53.330;11.498;2024-01-25T03:16:55;22519.88;;;-147.39;83.68
3524;BME280;1776;53.330;11.498;2024-01-25T03:19:25;22503.63;;;-147.39;83.95
3524;BME280;1776;53.330;11.498;2024-01-25T03:21:51;22525.97;;;-147.39;83.49
3524;BME280;1776;53.330;11.498;2024-01-25T03:24:16;22513.78;;;-147.39;83.70
3524;BME280;1776;53.330;11.498;2024-01-25T03:26:41;22521.91;;;-147.39;83.40
3524;BME280;1776;53.330;11.498;2024-01-25T03:29:07;22519.88;;;-147.39;82.96
3524;BME280;1776;53.330;11.498;2024-01-25T03:31:32;22525.97;;;-147.39;83.03
3524;BME280;1776;53.330;11.498;2024-01-25T03:33:57;22568.66;;;-147.39;82.49
3524;BME280;1776;53.330;11.498;2024-01-25T03:36:23;22584.91;;;-147.39;82.77
3524;BME280;1776;53.330;11.498;2024-01-25T03:38:48;22601.19;;;-147.39;82.71
3524;BME280;1776;53.330;11.498;2024-01-25T03:41:13;22521.91;;;-147.39;82.39
3524;BME280;1776;53.330;11.498;2024-01-25T03:43:39;22603.22;;;-147.39;82.81
3524;BME280;1776;53.330;11.498;2024-01-25T03:46:04;22578.81;;;-147.39;82.87
3524;BME280;1776;53.330;11.498;2024-01-25T03:48:30;22542.22;;;-147.39;82.80
3524;BME280;1776;53.330;11.498;2024-01-25T03:50:55;22639.78;;;-147.39;82.86
3524;BME280;1776;53.330;11.498;2024-01-25T03:53:22;22511.75;;;-147.39;82.75
3524;BME280;1776;53.330;11.498;2024-01-25T03:55:48;22639.78;;;-147.39;83.12
3524;BME280;1776;53.330;11.498;2024-01-25T03:58:14;22674.34;;;-147.39;83.04
3524;BME280;1776;53.330;11.498;2024-01-25T04:00:39;22536.13;;;-147.39;82.92
3524;BME280;1776;53.330;11.498;2024-01-25T04:03:05;22542.22;;;-147.39;82.93
3524;BME280;1776;53.330;11.498;2024-01-25T04:05:30;22552.41;;;-147.39;82.60
3524;BME280;1776;53.330;11.498;2024-01-25T04:07:55;22534.09;;;-147.39;83.24
3524;BME280;1776;53.330;11.498;2024-01-25T04:10:21;22530.03;;;-147.39;82.58
3524;BME280;1776;53.330;11.498;2024-01-25T04:12:46;22540.19;;;-147.39;82.45
3524;BME280;1776;53.330;11.498;2024-01-25T04:15:11;22530.03;;;-147.39;82.97
3524;BME280;1776;53.330;11.498;2024-01-25T04:17:36;22580.84;;;-147.39;82.02
3524;BME280;1776;53.330;11.498;2024-01-25T04:20:02;22375.56;;;-147.39;82.74
3524;BME280;1776;53.330;11.498;2024-01-25T04:22:28;22556.47;;;-147.39;82.76
3524;BME280;1776;53.330;11.498;2024-01-25T04:24:53;22544.25;;;-147.39;82.86
3524;BME280;1776;53.330;11.498;2024-01-25T04:27:18;22080.91;;;-147.39;83.38
3524;BME280;1776;53.330;11.498;2024-01-25T04:29:44;22593.03;;;-147.39;82.75
3524;BME280;1776;53.330;11.498;2024-01-25T04:32:09;22588.97;;;-147.39;82.60
3524;BME280;1776;53.330;11.498;2024-01-25T04:34:35;22591.00;;;-147.39;82.95
3524;BME280;1776;53.330;11.498;2024-01-25T04:37:01;22546.31;;;-147.39;83.04
3524;BME280;1776;53.330;11.498;2024-01-25T04:39:26;22617.44;;;-147.39;83.27
3524;BME280;1776;53.330;11.498;2024-01-25T04:41:52;22792.22;;;-147.39;83.14
3524;BME280;1776;53.330;11.498;2024-01-25T04:44:17;22536.13;;;-147.39;82.86
3524;BME280;1776;53.330;11.498;2024-01-25T04:46:43;22532.06;;;-147.39;82.79
3524;BME280;1776;53.330;11.498;2024-01-25T04:49:08;22548.34;;;-147.39;83.28
3524;BME280;1776;53.330;11.498;2024-01-25T04:51:34;22586.94;;;-147.39;83.61
3524;BME280;1776;53.330;11.498;2024-01-25T04:54:00;22540.19;;;-147.39;83.68
3524;BME280;1776;53.330;11.498;2024-01-25T04:56:25;22582.88;;;-147.39;83.26
3524;BME280;1776;53.330;11.498;2024-01-25T04:58:50;22528.00;;;-147.39;83.58
3524;BME280;1776;53.330;11.498;2024-01-25T05:01:16;22588.97;;;-147.39;83.74
3524;BME280;1776;53.330;11.498;2024-01-25T05:03:41;22560.53;;;-147.39;83.56
3524;BME280;1776;53.330;11.498;2024-01-25T05:06:06;22540.19;;;-147.39;83.54
3524;BME280;1776;53.330;11.498;2024-01-25T05:08:33;22546.31;;;-147.39;83.47
3524;BME280;1776;53.330;11.498;2024-01-25T05:10:58;22686.53;;;-147.39;83.35
3524;BME280;1776;53.330;11.498;2024-01-25T05:13:23;22523.94;;;-147.39;83.01
3524;BME280;1776;53.330;11.498;2024-01-25T05:15:49;22570.69;;;-147.39;83.07
3524;BME280;1776;53.330;11.498;2024-01-25T05:18:14;22617.44;;;-147.39;83.23
3524;BME280;1776;53.330;11.498;2024-01-25T05:20:40;22550.38;;;-147.39;83.71
3524;BME280;1776;53.330;11.498;2024-01-25T05:23:05;22554.44;;;-147.39;83.72
3524;BME280;1776;53.330;11.498;2024-01-25T05:25:31;22534.09;;;-147.39;83.96
3524;BME280;1776;53.330;11.498;2024-01-25T05:27:57;22534.09;;;-147.39;83.51
3524;BME280;1776;53.330;11.498;2024-01-25T05:30:24;22593.03;;;-147.39;83.97
3524;BME280;1776;53.330;11.498;2024-01-25T05:32:49;22513.78;;;-147.39;84.11
3524;BME280;1776;53.330;11.498;2024-01-25T05:35:15;22538.16;;;-147.39;84.04
3524;BME280;1776;53.330;11.498;2024-01-25T05:37:41;22536.13;;;-147.39;84.14
3524;BME280;1776;53.330;11.498;2024-01-25T05:40:07;22552.41;;;-147.39;84.18
3524;BME280;1776;53.330;11.498;2024-01-25T05:42:34;22560.53;;;-147.39;83.68
3524;BME280;1776;53.330;11.498;2024-01-25T05:44:59;22576.78;;;-147.39;83.64
3524;BME280;1776;53.330;11.498;2024-01-25T05:47:25;22680.44;;;-147.39;83.57
3524;BME280;1776;53.330;11.498;2024-01-25T05:49:50;22568.66;;;-147.39;83.22
3524;BME280;1776;53.330;11.498;2024-01-25T05:52:16;22548.34;;;-147.39;82.81
3524;BME280;1776;53.330;11.498;2024-01-25T05:54:41;22562.56;;;-147.39;82.85
3524;BME280;1776;53.330;11.498;2024-01-25T05:57:07;22562.56;;;-147.39;82.85
3524;BME280;1776;53.330;11.498;2024-01-25T05:59:32;22599.16;;;-147.39;82.66
3524;BME280;1776;53.330;11.498;2024-01-25T06:01:57;22588.97;;;-147.39;82.88
3524;BME280;1776;53.330;11.498;2024-01-25T06:04:23;22578.81;;;-147.39;82.89
3524;BME280;1776;53.330;11.498;2024-01-25T06:06:48;22574.75;;;-147.39;82.99
3524;BME280;1776;53.330;11.498;2024-01-25T06:09:13;22536.13;;;-147.39;83.14
3524;BME280;1776;53.330;11.498;2024-01-25T06:11:41;22365.41;;;-147.39;82.97
3524;BME280;1776;53.330;11.498;2024-01-25T06:14:08;22591.00;;;-147.39;83.21
3524;BME280;1776;53.330;11.498;2024-01-25T06:16:33;22566.63;;;-147.39;83.11
3524;BME280;1776;53.330;11.498;2024-01-25T06:18:58;22576.78;;;-147.39;83.76
3524;BME280;1776;53.330;11.498;2024-01-25T06:21:25;22519.88;;;-147.39;83.64
3524;BME280;1776;53.330;11.498;2024-01-25T06:23:50;22593.03;;;-147.39;83.85
3524;BME280;1776;53.330;11.498;2024-01-25T06:26:16;22544.25;;;-147.39;83.59
3524;BME280;1776;53.330;11.498;2024-01-25T06:28:41;22538.16;;;-147.39;84.47
3524;BME280;1776;53.330;11.498;2024-01-25T06:31:06;22536.13;;;-147.39;84.17
3524;BME280;1776;53.330;11.498;2024-01-25T06:33:31;22570.69;;;-147.39;84.31
3524;BME280;1776;53.330;11.498;2024-01-25T06:35:57;22530.03;;;-147.39;84.56
3524;BME280;1776;53.330;11.498;2024-01-25T06:38:22;22564.59;;;-147.39;84.50
3524;BME280;1776;53.330;11.498;2024-01-25T06:40:47;22550.38;;;-147.39;84.97
3524;BME280;1776;53.330;11.498;2024-01-25T06:43:13;22627.59;;;-147.39;84.27
3524;BME280;1776;53.330;11.498;2024-01-25T06:45:38;22521.91;;;-147.39;84.45
3524;BME280;1776;53.330;11.498;2024-01-25T06:48:06;22505.66;;;-147.39;84.58
3524;BME280;1776;53.330;11.498;2024-01-25T06:50:31;22497.53;;;-147.39;84.81
3524;BME280;1776;53.330;11.498;2024-01-25T06:52:56;22487.34;;;-147.39;84.83
3524;BME280;1776;53.330;11.498;2024-01-25T06:55:22;22521.91;;;-147.39;84.84
3524;BME280;1776;53.330;11.498;2024-01-25T06:57:47;22460.94;;;-147.39;84.54
3524;BME280;1776;53.330;11.498;2024-01-25T07:00:13;22536.13;;;-147.39;84.58
3524;BME280;1776;53.330;11.498;2024-01-25T07:02:40;22534.09;;;-147.39;84.74
3524;BME280;1776;53.330;11.498;2024-01-25T07:05:06;22521.91;;;-147.39;84.89
3524;BME280;1776;53.330;11.498;2024-01-25T07:07:31;22513.78;;;-147.39;84.91
3524;BME280;1776;53.330;11.498;2024-01-25T07:09:58;22015.88;;;-147.39;84.81
3524;BME280;1776;53.330;11.498;2024-01-25T07:12:23;22517.84;;;-147.39;84.87
3524;BME280;1776;53.330;11.498;2024-01-25T07:14:48;22481.25;;;-147.39;85.17
3524;BME280;1776;53.330;11.498;2024-01-25T07:17:13;22515.81;;;-147.39;85.01
3524;BME280;1776;53.330;11.498;2024-01-25T07:19:39;22530.03;;;-147.39;85.09
3524;BME280;1776;53.330;11.498;2024-01-25T07:22:04;22509.72;;;-147.39;85.40
3524;BME280;1776;53.330;11.498;2024-01-25T07:24:30;22501.59;;;-147.39;84.91
3524;BME280;1776;53.330;11.498;2024-01-25T07:26:55;22483.28;;;-147.39;84.87
3524;BME280;1776;53.330;11.498;2024-01-25T07:29:20;22511.75;;;-147.39;84.79
3524;BME280;1776;53.330;11.498;2024-01-25T07:31:45;22511.75;;;-147.39;84.95
3524;BME280;1776;53.330;11.498;2024-01-25T07:34:11;22525.97;;;-147.39;84.57
3524;BME280;1776;53.330;11.498;2024-01-25T07:36:36;22542.22;;;-147.39;85.14
3524;BME280;1776;53.330;11.498;2024-01-25T07:39:01;22556.47;;;-147.39;85.09
3524;BME280;1776;53.330;11.498;2024-01-25T07:41:27;22601.19;;;-147.39;85.37
3524;BME280;1776;53.330;11.498;2024-01-25T07:43:53;22647.91;;;-147.39;85.27
3524;BME280;1776;53.330;11.498;2024-01-25T07:46:20;22708.91;;;-147.39;85.33
3524;BME280;1776;53.330;11.498;2024-01-25T07:48:45;22505.66;;;-147.39;85.60
3524;BME280;1776;53.330;11.498;2024-01-25T07:51:12;22546.31;;;-147.39;85.38
3524;BME280;1776;53.330;11.498;2024-01-25T07:53:38;22481.25;;;-147.39;85.35
3524;BME280;1776;53.330;11.498;2024-01-25T07:56:06;22507.69;;;-147.39;85.34
3524;BME280;1776;53.330;11.498;2024-01-25T07:58:31;22485.31;;;-147.39;85.12
3524;BME280;1776;53.330;11.498;2024-01-25T08:00:56;22525.97;;;-147.39;85.03
3524;BME280;1776;53.330;11.498;2024-01-25T08:03:22;22536.13;;;-147.39;84.98
3524;BME280;1776;53.330;11.498;2024-01-25T08:05:47;22503.63;;;-147.39;85.30
3524;BME280;1776;53.330;11.498;2024-01-25T08:08:12;22552.41;;;-147.39;84.75
3524;BME280;1776;53.330;11.498;2024-01-25T08:10:38;22584.91;;;-147.39;85.17
3524;BME280;1776;53.330;11.498;2024-01-25T08:13:03;22491.41;;;-147.39;85.16
3524;BME280;1776;53.330;11.498;2024-01-25T08:15:28;22525.97;;;-147.39;85.39
3524;BME280;1776;53.330;11.498;2024-01-25T08:17:54;22428.41;;;-147.39;85.44
3524;BME280;1776;53.330;11.498;2024-01-25T08:20:19;22613.38;;;-147.39;85.38
3524;BME280;1776;53.330;11.498;2024-01-25T08:22:45;22558.50;;;-147.39;85.63
3524;BME280;1776;53.330;11.498;2024-01-25T08:25:10;22491.41;;;-147.39;85.36
3524;BME280;1776;53.330;11.498;2024-01-25T08:27:39;22485.31;;;-147.39;85.55
3524;BME280;1776;53.330;11.498;2024-01-25T08:30:04;22477.19;;;-147.39;85.31
3524;BME280;1776;53.330;11.498;2024-01-25T08:32:30;22576.78;;;-147.39;84.81
3524;BME280;1776;53.330;11.498;2024-01-25T08:34:55;22560.53;;;-147.39;84.59
3524;BME280;1776;53.330;11.498;2024-01-25T08:37:20;22536.13;;;-147.39;84.86
3524;BME280;1776;53.330;11.498;2024-01-25T08:39:45;22566.63;;;-147.39;84.97
3524;BME280;1776;53.330;11.498;2024-01-25T08:42:15;22542.22;;;-147.39;84.93
3524;BME280;1776;53.330;11.498;2024-01-25T08:44:40;22532.06;;;-147.39;84.49
3524;BME280;1776;53.330;11.498;2024-01-25T08:47:09;22530.03;;;-147.39;84.85
3524;BME280;1776;53.330;11.498;2024-01-25T08:49:38;22540.19;;;-147.39;85.16
3524;BME280;1776;53.330;11.498;2024-01-25T08:52:03;22515.81;;;-147.39;84.94
3524;BME280;1776;53.330;11.498;2024-01-25T08:54:30;22584.91;;;-147.39;84.64
3524;BME280;1776;53.330;11.498;2024-01-25T08:56:55;22556.47;;;-147.39;84.73
3524;BME280;1776;53.330;11.498;2024-01-25T08:59:20;22601.19;;;-147.39;84.34
3524;BME280;1776;53.330;11.498;2024-01-25T09:01:46;22570.69;;;-147.39;83.81
3524;BME280;1776;53.330;11.498;2024-01-25T09:04:11;22759.72;;;-147.39;83.66
3524;BME280;1776;53.330;11.498;2024-01-25T09:06:36;22637.75;;;-147.39;82.54
3524;BME280;1776;53.330;11.498;2024-01-25T09:09:02;22682.47;;;-147.39;82.90
3524;BME280;1776;53.330;11.498;2024-01-25T09:11:28;22692.63;;;-147.39;81.33
3524;BME280;1776;53.330;11.498;2024-01-25T09:13:53;22184.53;;;-147.39;80.01
3524;BME280;1776;53.330;11.498;2024-01-25T09:16:19;22751.59;;;-147.39;78.63
3524;BME280;1776;53.330;11.498;2024-01-25T09:18:45;22694.66;;;-147.39;80.50
3524;BME280;1776;53.330;11.498;2024-01-25T09:21:10;22672.31;;;-147.39;81.78
3524;BME280;1776;53.330;11.498;2024-01-25T09:23:36;22753.63;;;-147.39;79.39
3524;BME280;1776;53.330;11.498;2024-01-25T09:26:01;22981.28;;;-147.39;74.18
3524;BME280;1776;53.330;11.498;2024-01-25T09:28:26;23174.38;;;-147.39;70.79
3524;BME280;1776;53.330;11.498;2024-01-25T09:30:52;23383.75;;;-147.39;69.84
3524;BME280;1776;53.330;11.498;2024-01-25T09:33:17;23080.88;;;-147.39;72.24
3524;BME280;1776;53.330;11.498;2024-01-25T09:35:43;23156.09;;;-147.39;72.40
3524;BME280;1776;53.330;11.498;2024-01-25T09:38:12;23274.00;;;-147.39;71.05
3524;BME280;1776;53.330;11.498;2024-01-25T09:40:37;23267.88;;;-147.39;67.19
3524;BME280;1776;53.330;11.498;2024-01-25T09:43:03;23202.84;;;-147.39;68.36
3524;BME280;1776;53.330;11.498;2024-01-25T09:45:31;23229.25;;;-147.39;68.41
3524;BME280;1776;53.330;11.498;2024-01-25T09:47:56;23343.09;;;-147.39;65.99
3524;BME280;1776;53.330;11.498;2024-01-25T09:50:22;23412.22;;;-147.39;65.76
3524;BME280;1776;53.330;11.498;2024-01-25T09:52:54;23489.47;;;-147.39;65.11
3524;BME280;1776;53.330;11.498;2024-01-25T09:55:24;23373.59;;;-147.39;66.17
3524;BME280;1776;53.330;11.498;2024-01-25T09:57:53;23365.47;;;-147.39;67.58
3524;BME280;1776;53.330;11.498;2024-01-25T10:00:19;23375.63;;;-147.39;67.52
3524;BME280;1776;53.330;11.498;2024-01-25T10:02:47;23302.44;;;-147.39;69.39
3524;BME280;1776;53.330;11.498;2024-01-25T10:05:12;23294.31;;;-147.39;69.06
3524;BME280;1776;53.330;11.498;2024-01-25T10:07:42;23302.44;;;-147.39;68.43
3524;BME280;1776;53.330;11.498;2024-01-25T10:10:08;23310.56;;;-147.39;69.41
3524;BME280;1776;53.330;11.498;2024-01-25T10:12:33;23229.25;;;-147.39;70.29
3524;BME280;1776;53.330;11.498;2024-01-25T10:14:59;23288.22;;;-147.39;69.23
3524;BME280;1776;53.330;11.498;2024-01-25T10:17:24;23306.50;;;-147.39;71.00
3524;BME280;1776;53.330;11.498;2024-01-25T10:19:50;23237.41;;;-147.39;70.64
3524;BME280;1776;53.330;11.498;2024-01-25T10:22:15;23263.81;;;-147.39;71.70
3524;BME280;1776;53.330;11.498;2024-01-25T10:24:40;23231.28;;;-147.39;70.46
3524;BME280;1776;53.330;11.498;2024-01-25T10:27:07;23245.53;;;-147.39;70.62
3524;BME280;1776;53.330;11.498;2024-01-25T10:29:34;23225.19;;;-147.39;71.10
3524;BME280;1776;53.330;11.498;2024-01-25T10:32:00;23170.31;;;-147.39;72.03
3524;BME280;1776;53.330;11.498;2024-01-25T10:34:26;23156.09;;;-147.39;72.42
3524;BME280;1776;53.330;11.498;2024-01-25T10:36:51;23192.69;;;-147.39;72.41
3524;BME280;1776;53.330;11.498;2024-01-25T10:39:17;23170.31;;;-147.39;72.39
3524;BME280;1776;53.330;11.498;2024-01-25T10:41:45;23198.78;;;-147.39;71.91
3524;BME280;1776;53.330;11.498;2024-01-25T10:44:15;23182.50;;;-147.39;72.84
3524;BME280;1776;53.330;11.498;2024-01-25T10:46:41;23302.44;;;-147.39;72.39
3524;BME280;1776;53.330;11.498;2024-01-25T10:49:07;23158.13;;;-147.39;72.32
3524;BME280;1776;53.330;11.498;2024-01-25T10:51:33;23127.63;;;-147.39;72.51
3524;BME280;1776;53.330;11.498;2024-01-25T10:53:59;23176.41;;;-147.39;73.35
3524;BME280;1776;53.330;11.498;2024-01-25T10:56:25;23121.53;;;-147.39;73.76
3524;BME280;1776;53.330;11.498;2024-01-25T10:58:51;23141.84;;;-147.39;73.54
3524;BME280;1776;53.330;11.498;2024-01-25T11:01:17;23265.84;;;-147.39;74.24
3524;BME280;1776;53.330;11.498;2024-01-25T11:03:45;23091.03;;;-147.39;73.71
3524;BME280;1776;53.330;11.498;2024-01-25T11:06:12;23204.88;;;-147.39;74.05
3524;BME280;1776;53.330;11.498;2024-01-25T11:08:38;23253.66;;;-147.39;74.77
3524;BME280;1776;53.330;11.498;2024-01-25T11:11:11;23101.19;;;-147.39;74.83
3524;BME280;1776;53.330;11.498;2024-01-25T11:13:44;23097.13;;;-147.39;75.22
3524;BME280;1776;53.330;11.498;2024-01-25T11:16:17;23097.13;;;-147.39;73.44
3524;BME280;1776;53.330;11.498;2024-01-25T11:18:53;23123.56;;;-147.39;73.38
3524;BME280;1776;53.330;11.498;2024-01-25T11:21:26;23219.09;;;-147.39;73.69
3524;BME280;1776;53.330;11.498;2024-01-25T11:24:02;23135.75;;;-147.39;72.33
3524;BME280;1776;53.330;11.498;2024-01-25T11:26:29;23147.94;;;-147.39;72.64
3524;BME280;1776;53.330;11.498;2024-01-25T11:28:54;23184.53;;;-147.39;72.31
3524;BME280;1776;53.330;11.498;2024-01-25T11:31:21;23158.13;;;-147.39;72.07
3524;BME280;1776;53.330;11.498;2024-01-25T11:33:47;23160.16;;;-147.39;71.92
3524;BME280;1776;53.330;11.498;2024-01-25T11:36:12;23204.88;;;-147.39;72.35
3524;BME280;1776;53.330;11.498;2024-01-25T11:38:38;23166.25;;;-147.39;71.86
3524;BME280;1776;53.330;11.498;2024-01-25T11:41:03;23198.78;;;-147.39;71.68
3524;BME280;1776;53.330;11.498;2024-01-25T11:43:28;23217.06;;;-147.39;70.78
3524;BME280;1776;53.330;11.498;2024-01-25T11:45:54;23292.28;;;-147.39;69.91
3524;BME280;1776;53.330;11.498;2024-01-25T11:48:19;23312.63;;;-147.39;71.39
3524;BME280;1776;53.330;11.498;2024-01-25T11:50:44;23200.81;;;-147.39;71.09
3524;BME280;1776;53.330;11.498;2024-01-25T11:53:10;23188.59;;;-147.39;71.18
3524;BME280;1776;53.330;11.498;2024-01-25T11:55:35;23259.75;;;-147.39;70.58
3524;BME280;1776;53.330;11.498;2024-01-25T11:58:01;23235.38;;;-147.39;70.56
3524;BME280;1776;53.330;11.498;2024-01-25T12:00:28;23235.38;;;-147.39;70.62
3524;BME280;1776;53.330;11.498;2024-01-25T12:02:53;23233.34;;;-147.39;71.10
3524;BME280;1776;53.330;11.498;2024-01-25T12:05:19;23257.72;;;-147.39;70.82
3524;BME280;1776;53.330;11.498;2024-01-25T12:07:45;23296.34;;;-147.39;70.83
3524;BME280;1776;53.330;11.498;2024-01-25T12:10:15;23245.53;;;-147.39;70.70
3524;BME280;1776;53.330;11.498;2024-01-25T12:12:41;23241.47;;;-147.39;70.45
3524;BME280;1776;53.330;11.498;2024-01-25T12:15:07;23127.63;;;-147.39;69.95
3524;BME280;1776;53.330;11.498;2024-01-25T12:17:34;23223.16;;;-147.39;70.59
3524;BME280;1776;53.330;11.498;2024-01-25T12:20:04;23215.03;;;-147.39;70.12
3524;BME280;1776;53.330;11.498;2024-01-25T12:22:35;23215.03;;;-147.39;71.18
3524;BME280;1776;53.330;11.498;2024-01-25T12:25:01;23239.44;;;-147.39;70.89
3524;BME280;1776;53.330;11.498;2024-01-25T12:27:26;23190.63;;;-147.39;71.21
3524;BME280;1776;53.330;11.498;2024-01-25T12:29:52;23227.22;;;-147.39;71.11
3524;BME280;1776;53.330;11.498;2024-01-25T12:32:20;23172.34;;;-147.39;71.21
3524;BME280;1776;53.330;11.498;2024-01-25T12:34:56;23147.94;;;-147.39;71.72
3524;BME280;1776;53.330;11.498;2024-01-25T12:37:22;23172.34;;;-147.39;71.65
3524;BME280;1776;53.330;11.498;2024-01-25T12:39:47;23172.34;;;-147.39;72.22
3524;BME280;1776;53.330;11.498;2024-01-25T12:42:13;23227.22;;;-147.39;71.80